Imperial, CA (92251)

5:46 AM PDT on March 30, 2017 (GMT -0700)
Imperial County | | Change Station
Active Advisory: Wind Advisory

Elev -56 ft 32.83 °N, 115.58 °W | Updated 53 minutes ago

Clear
Clear
63 °F
Feels Like 63 °F
N
6
Wind Variable Wind from ESE

Today
High -- | Low -- °F
--% Chance of Precip.
Yesterday
High -- | Low -- °F
Precip. -- in
Pressure 29.84 in
Visibility 10.0 miles
Clouds Clear
Dew Point 33 °F
Humidity 33%
Rainfall 0.00 in
Snow Depth Not available.
6:32 AM 7:01 PM
Waxing Crescent, 8% visible
METAR KIPL 301153Z AUTO 12005KT 10SM CLR 17/01 A2984 RMK AO2 SLP104 T01720006 10233 20161 56016
Pressure 29.84 in
Visibility 10.0 miles
Clouds Clear
Dew Point 33 °F
Humidity 33%
Rainfall 0.00 in
Snow Depth Not available.
6:32 AM 7:01 PM
Waxing Crescent, 8% visible
METAR KIPL 301153Z AUTO 12005KT 10SM CLR 17/01 A2984 RMK AO2 SLP104 T01720006 10233 20161 56016

Get Your Daily Forecast Email!

Thanks for signing up!

Be on the lookout for a verification email in your inbox.

You'll start receiving severe weather alerts in your inbox..

×

10-Day Weather Forecast

Almanac

Astronomy

Mar. 30, 2017 Rise Set
Actual Time
Civil Twilight
Nautical Twilight
Astronomical Twilight
Moon
Length of Visible Light
Length of Day
Tomorrow will be .
, % of the Moon is Illuminated

Today's Extremes

State Highs State Lows

Community

WunderPhotos

Upload Photos

1,962,540 photos uploaded!

WunderBlog® & News

Nearby

Air Quality

  Air Quality AQ Index Pollutant
Not available.

Snow Depth

Station Depth Elevation

Earthquake Activity

City Distance Mag. Time & Date
Minimum magnitude displayed is 2.5.

Earthquake Activity

City Distance Mag. Time & Date
Minimum magnitude displayed is 2.5.

Coastal Water Temperatures

Place Temperature

Stations

Nearby Weather Stations

Station Location Temp. Windchill Dew Point Humidity Wind Precip. Elev Updated Type
                   

Watches & Warnings

Wind Advisory
Issued: 1:59 AM PDT Mar. 30, 2017 – National Weather Service

... Wind Advisory remains in effect from 2 PM this afternoon to
11 PM PDT this evening...

* affected area... Imperial County including Interstate 8.

* Timing... Thursday afternoon through late evening.

* Winds... west winds of 25 to 35 mph with gusts up to 45 mph.

* Impacts... strong winds will create difficult driving
conditions especially for high profile vehicles. Locally
reduced visibilities due to blowing dust possible.

Precautionary/preparedness actions...

A Wind Advisory means that sustained wind speeds of between
30 and 40 mph are expected, or wind gusts of between 40 and
58 mph. Winds this strong can make driving difficult, especially
for high profile vehicles. In addition, strong winds over desert
areas could result in briefly lowered visibilities to well under
a mile at times in blowing dust or blowing sand. Use extra
caution.